sensor_id;sensor_type;location;lat;lon;timestamp;P1;durP1;ratioP1;P2;durP2;ratioP2
35120;SDS011;21297;52.008;4.576;2023-07-02T00:01:54;15.73;;;5.80;;
35120;SDS011;21297;52.008;4.576;2023-07-02T00:08:04;23.05;;;7.13;;
35120;SDS011;21297;52.008;4.576;2023-07-02T00:10:49;23.17;;;6.05;;
35120;SDS011;21297;52.008;4.576;2023-07-02T00:13:35;24.00;;;7.15;;
35120;SDS011;21297;52.008;4.576;2023-07-02T00:16:21;21.38;;;6.97;;
35120;SDS011;21297;52.008;4.576;2023-07-02T00:19:06;19.00;;;5.90;;
35120;SDS011;21297;52.008;4.576;2023-07-02T00:21:52;16.58;;;6.15;;
35120;SDS011;21297;52.008;4.576;2023-07-02T00:24:38;25.55;;;6.32;;
35120;SDS011;21297;52.008;4.576;2023-07-02T00:27:24;16.75;;;5.50;;
35120;SDS011;21297;52.008;4.576;2023-07-02T00:30:10;19.75;;;5.40;;
35120;SDS011;21297;52.008;4.576;2023-07-02T00:32:56;16.08;;;5.07;;
35120;SDS011;21297;52.008;4.576;2023-07-02T00:35:41;12.75;;;5.00;;
35120;SDS011;21297;52.008;4.576;2023-07-02T00:38:27;18.45;;;5.32;;
35120;SDS011;21297;52.008;4.576;2023-07-02T00:41:13;18.00;;;5.40;;
35120;SDS011;21297;52.008;4.576;2023-07-02T00:43:59;16.90;;;5.03;;
35120;SDS011;21297;52.008;4.576;2023-07-02T00:46:48;15.60;;;5.75;;
35120;SDS011;21297;52.008;4.576;2023-07-02T00:49:33;21.00;;;5.78;;
35120;SDS011;21297;52.008;4.576;2023-07-02T00:52:37;15.98;;;6.63;;
35120;SDS011;21297;52.008;4.576;2023-07-02T00:55:24;20.73;;;7.45;;
35120;SDS011;21297;52.008;4.576;2023-07-02T00:58:27;17.33;;;6.97;;
35120;SDS011;21297;52.008;4.576;2023-07-02T01:01:16;21.27;;;8.15;;
35120;SDS011;21297;52.008;4.576;2023-07-02T01:04:04;23.70;;;7.70;;
35120;SDS011;21297;52.008;4.576;2023-07-02T01:07:06;26.25;;;7.95;;
35120;SDS011;21297;52.008;4.576;2023-07-02T01:09:55;30.92;;;9.00;;
35120;SDS011;21297;52.008;4.576;2023-07-02T01:12:40;22.80;;;7.93;;
35120;SDS011;21297;52.008;4.576;2023-07-02T01:15:26;26.05;;;8.07;;
35120;SDS011;21297;52.008;4.576;2023-07-02T01:18:13;23.30;;;8.10;;
35120;SDS011;21297;52.008;4.576;2023-07-02T01:21:00;28.70;;;7.95;;
35120;SDS011;21297;52.008;4.576;2023-07-02T01:23:47;26.35;;;8.38;;
35120;SDS011;21297;52.008;4.576;2023-07-02T01:26:32;26.02;;;7.63;;
35120;SDS011;21297;52.008;4.576;2023-07-02T01:29:20;26.55;;;8.50;;
35120;SDS011;21297;52.008;4.576;2023-07-02T01:32:06;25.83;;;9.05;;
35120;SDS011;21297;52.008;4.576;2023-07-02T01:34:52;23.92;;;7.93;;
35120;SDS011;21297;52.008;4.576;2023-07-02T01:37:38;22.25;;;7.65;;
35120;SDS011;21297;52.008;4.576;2023-07-02T01:40:24;25.65;;;7.70;;
35120;SDS011;21297;52.008;4.576;2023-07-02T01:43:09;31.15;;;8.75;;
35120;SDS011;21297;52.008;4.576;2023-07-02T01:45:56;28.08;;;7.88;;
35120;SDS011;21297;52.008;4.576;2023-07-02T01:48:42;25.27;;;7.22;;
35120;SDS011;21297;52.008;4.576;2023-07-02T01:51:28;25.73;;;8.10;;
35120;SDS011;21297;52.008;4.576;2023-07-02T01:54:13;24.35;;;7.80;;
35120;SDS011;21297;52.008;4.576;2023-07-02T01:56:59;28.83;;;8.68;;
35120;SDS011;21297;52.008;4.576;2023-07-02T01:59:45;23.20;;;8.38;;
35120;SDS011;21297;52.008;4.576;2023-07-02T02:02:30;27.13;;;8.70;;
35120;SDS011;21297;52.008;4.576;2023-07-02T02:05:16;28.52;;;7.57;;
35120;SDS011;21297;52.008;4.576;2023-07-02T02:08:02;31.30;;;10.05;;
35120;SDS011;21297;52.008;4.576;2023-07-02T02:10:47;25.40;;;8.07;;
35120;SDS011;21297;52.008;4.576;2023-07-02T02:13:33;24.95;;;8.85;;
35120;SDS011;21297;52.008;4.576;2023-07-02T02:16:19;26.55;;;9.45;;
35120;SDS011;21297;52.008;4.576;2023-07-02T02:19:05;20.88;;;8.02;;
35120;SDS011;21297;52.008;4.576;2023-07-02T02:21:51;23.90;;;9.32;;
35120;SDS011;21297;52.008;4.576;2023-07-02T02:24:39;29.38;;;9.00;;
35120;SDS011;21297;52.008;4.576;2023-07-02T02:27:25;28.80;;;9.65;;
35120;SDS011;21297;52.008;4.576;2023-07-02T02:30:11;27.13;;;8.80;;
35120;SDS011;21297;52.008;4.576;2023-07-02T02:32:56;24.15;;;8.25;;
35120;SDS011;21297;52.008;4.576;2023-07-02T02:35:42;26.38;;;9.57;;
35120;SDS011;21297;52.008;4.576;2023-07-02T02:38:28;23.05;;;8.18;;
35120;SDS011;21297;52.008;4.576;2023-07-02T02:41:13;30.23;;;10.25;;
35120;SDS011;21297;52.008;4.576;2023-07-02T02:43:59;28.45;;;9.88;;
35120;SDS011;21297;52.008;4.576;2023-07-02T02:46:45;29.02;;;8.73;;
35120;SDS011;21297;52.008;4.576;2023-07-02T02:49:30;30.33;;;9.57;;
35120;SDS011;21297;52.008;4.576;2023-07-02T02:52:16;25.63;;;8.60;;
35120;SDS011;21297;52.008;4.576;2023-07-02T02:55:02;29.38;;;10.07;;
35120;SDS011;21297;52.008;4.576;2023-07-02T02:57:48;27.48;;;8.57;;
35120;SDS011;21297;52.008;4.576;2023-07-02T03:00:33;32.08;;;9.85;;
35120;SDS011;21297;52.008;4.576;2023-07-02T03:03:19;30.13;;;8.93;;
35120;SDS011;21297;52.008;4.576;2023-07-02T03:06:05;28.85;;;9.07;;
35120;SDS011;21297;52.008;4.576;2023-07-02T03:08:51;33.30;;;9.45;;
35120;SDS011;21297;52.008;4.576;2023-07-02T03:11:36;25.90;;;8.35;;
35120;SDS011;21297;52.008;4.576;2023-07-02T03:14:22;34.15;;;9.45;;
35120;SDS011;21297;52.008;4.576;2023-07-02T03:17:08;31.73;;;8.98;;
35120;SDS011;21297;52.008;4.576;2023-07-02T03:19:56;27.00;;;7.95;;
35120;SDS011;21297;52.008;4.576;2023-07-02T03:22:45;31.38;;;8.63;;
35120;SDS011;21297;52.008;4.576;2023-07-02T03:25:30;31.52;;;9.07;;
35120;SDS011;21297;52.008;4.576;2023-07-02T03:28:16;32.13;;;9.00;;
35120;SDS011;21297;52.008;4.576;2023-07-02T03:31:02;33.92;;;9.88;;
35120;SDS011;21297;52.008;4.576;2023-07-02T03:33:51;26.77;;;8.40;;
35120;SDS011;21297;52.008;4.576;2023-07-02T03:36:37;27.33;;;8.73;;
35120;SDS011;21297;52.008;4.576;2023-07-02T03:39:23;32.00;;;9.18;;
35120;SDS011;21297;52.008;4.576;2023-07-02T03:42:08;28.77;;;8.68;;
35120;SDS011;21297;52.008;4.576;2023-07-02T03:44:54;26.52;;;8.60;;
35120;SDS011;21297;52.008;4.576;2023-07-02T03:47:40;27.02;;;8.70;;
35120;SDS011;21297;52.008;4.576;2023-07-02T03:50:25;25.40;;;8.38;;
35120;SDS011;21297;52.008;4.576;2023-07-02T03:53:11;29.67;;;9.02;;
35120;SDS011;21297;52.008;4.576;2023-07-02T03:55:57;22.88;;;7.90;;
35120;SDS011;21297;52.008;4.576;2023-07-02T03:58:43;27.48;;;8.43;;
35120;SDS011;21297;52.008;4.576;2023-07-02T04:01:31;26.65;;;8.55;;
35120;SDS011;21297;52.008;4.576;2023-07-02T04:04:17;26.23;;;8.25;;
35120;SDS011;21297;52.008;4.576;2023-07-02T04:07:13;30.38;;;8.27;;
35120;SDS011;21297;52.008;4.576;2023-07-02T04:09:59;23.88;;;8.07;;
35120;SDS011;21297;52.008;4.576;2023-07-02T04:12:46;23.40;;;8.73;;
35120;SDS011;21297;52.008;4.576;2023-07-02T04:15:34;30.27;;;8.45;;
35120;SDS011;21297;52.008;4.576;2023-07-02T04:18:20;25.52;;;7.75;;
35120;SDS011;21297;52.008;4.576;2023-07-02T04:21:12;23.63;;;7.25;;
35120;SDS011;21297;52.008;4.576;2023-07-02T04:23:57;22.92;;;6.57;;
35120;SDS011;21297;52.008;4.576;2023-07-02T04:26:43;29.27;;;7.93;;
35120;SDS011;21297;52.008;4.576;2023-07-02T04:29:29;25.83;;;7.50;;
35120;SDS011;21297;52.008;4.576;2023-07-02T04:32:18;24.83;;;8.52;;
35120;SDS011;21297;52.008;4.576;2023-07-02T04:35:04;23.38;;;7.88;;
35120;SDS011;21297;52.008;4.576;2023-07-02T04:37:50;22.60;;;6.80;;
35120;SDS011;21297;52.008;4.576;2023-07-02T04:40:36;25.48;;;8.13;;
35120;SDS011;21297;52.008;4.576;2023-07-02T04:43:28;26.92;;;7.30;;
35120;SDS011;21297;52.008;4.576;2023-07-02T04:46:14;21.40;;;7.38;;
35120;SDS011;21297;52.008;4.576;2023-07-02T04:49:00;22.77;;;6.95;;
35120;SDS011;21297;52.008;4.576;2023-07-02T04:51:46;20.25;;;6.90;;
35120;SDS011;21297;52.008;4.576;2023-07-02T04:54:31;29.15;;;7.18;;
35120;SDS011;21297;52.008;4.576;2023-07-02T04:57:17;29.75;;;7.68;;
35120;SDS011;21297;52.008;4.576;2023-07-02T05:00:03;27.02;;;7.70;;
35120;SDS011;21297;52.008;4.576;2023-07-02T05:02:54;23.63;;;7.43;;
35120;SDS011;21297;52.008;4.576;2023-07-02T05:05:39;26.50;;;7.95;;
35120;SDS011;21297;52.008;4.576;2023-07-02T05:08:34;19.77;;;6.38;;
35120;SDS011;21297;52.008;4.576;2023-07-02T05:11:19;22.80;;;6.22;;
35120;SDS011;21297;52.008;4.576;2023-07-02T05:14:14;22.00;;;6.28;;
35120;SDS011;21297;52.008;4.576;2023-07-02T05:17:00;29.77;;;6.85;;
35120;SDS011;21297;52.008;4.576;2023-07-02T05:19:46;21.80;;;5.90;;
35120;SDS011;21297;52.008;4.576;2023-07-02T05:22:31;20.83;;;6.68;;
35120;SDS011;21297;52.008;4.576;2023-07-02T05:25:37;24.75;;;6.57;;
35120;SDS011;21297;52.008;4.576;2023-07-02T05:28:03;21.23;;;7.40;;
35120;SDS011;21297;52.008;4.576;2023-07-02T05:30:28;19.02;;;5.97;;
35120;SDS011;21297;52.008;4.576;2023-07-02T05:32:53;22.73;;;7.28;;
35120;SDS011;21297;52.008;4.576;2023-07-02T05:35:54;26.77;;;6.53;;
35120;SDS011;21297;52.008;4.576;2023-07-02T05:38:42;27.98;;;7.68;;
35120;SDS011;21297;52.008;4.576;2023-07-02T05:41:35;25.77;;;7.90;;
35120;SDS011;21297;52.008;4.576;2023-07-02T05:44:21;23.30;;;6.68;;
35120;SDS011;21297;52.008;4.576;2023-07-02T05:47:08;25.60;;;6.90;;
35120;SDS011;21297;52.008;4.576;2023-07-02T05:49:54;23.73;;;7.15;;
35120;SDS011;21297;52.008;4.576;2023-07-02T05:52:42;22.58;;;6.22;;
35120;SDS011;21297;52.008;4.576;2023-07-02T05:55:28;19.85;;;6.35;;
35120;SDS011;21297;52.008;4.576;2023-07-02T05:58:14;24.95;;;6.88;;
35120;SDS011;21297;52.008;4.576;2023-07-02T06:00:59;22.55;;;6.25;;
35120;SDS011;21297;52.008;4.576;2023-07-02T06:03:49;21.98;;;6.97;;
35120;SDS011;21297;52.008;4.576;2023-07-02T06:06:44;24.15;;;6.90;;
35120;SDS011;21297;52.008;4.576;2023-07-02T06:09:59;23.45;;;6.57;;
35120;SDS011;21297;52.008;4.576;2023-07-02T06:16:05;24.65;;;6.32;;
35120;SDS011;21297;52.008;4.576;2023-07-02T06:19:15;19.50;;;6.03;;
35120;SDS011;21297;52.008;4.576;2023-07-02T06:22:07;24.63;;;5.97;;
35120;SDS011;21297;52.008;4.576;2023-07-02T06:25:01;20.60;;;6.10;;
35120;SDS011;21297;52.008;4.576;2023-07-02T06:27:46;23.85;;;5.90;;
35120;SDS011;21297;52.008;4.576;2023-07-02T06:30:32;18.95;;;5.68;;
35120;SDS011;21297;52.008;4.576;2023-07-02T06:33:18;22.77;;;6.13;;
35120;SDS011;21297;52.008;4.576;2023-07-02T06:36:04;29.85;;;7.22;;
35120;SDS011;21297;52.008;4.576;2023-07-02T06:38:50;14.40;;;5.20;;
35120;SDS011;21297;52.008;4.576;2023-07-02T06:41:36;22.73;;;5.35;;
35120;SDS011;21297;52.008;4.576;2023-07-02T06:44:21;18.17;;;5.70;;
35120;SDS011;21297;52.008;4.576;2023-07-02T06:47:10;18.42;;;5.60;;
35120;SDS011;21297;52.008;4.576;2023-07-02T06:49:58;20.42;;;6.05;;
35120;SDS011;21297;52.008;4.576;2023-07-02T06:52:47;22.73;;;6.15;;
35120;SDS011;21297;52.008;4.576;2023-07-02T06:55:38;23.02;;;6.63;;
35120;SDS011;21297;52.008;4.576;2023-07-02T06:58:24;28.88;;;6.43;;
35120;SDS011;21297;52.008;4.576;2023-07-02T07:01:10;18.88;;;5.45;;
35120;SDS011;21297;52.008;4.576;2023-07-02T07:03:55;20.48;;;6.65;;
35120;SDS011;21297;52.008;4.576;2023-07-02T07:06:41;20.25;;;6.80;;
35120;SDS011;21297;52.008;4.576;2023-07-02T07:09:32;23.02;;;6.30;;
35120;SDS011;21297;52.008;4.576;2023-07-02T07:12:17;23.25;;;6.38;;
35120;SDS011;21297;52.008;4.576;2023-07-02T07:15:03;25.40;;;6.55;;
35120;SDS011;21297;52.008;4.576;2023-07-02T07:17:52;24.25;;;6.72;;
35120;SDS011;21297;52.008;4.576;2023-07-02T07:20:41;20.73;;;6.43;;
35120;SDS011;21297;52.008;4.576;2023-07-02T07:23:30;16.55;;;4.93;;
35120;SDS011;21297;52.008;4.576;2023-07-02T07:26:15;18.42;;;6.10;;
35120;SDS011;21297;52.008;4.576;2023-07-02T07:29:01;20.95;;;5.90;;
35120;SDS011;21297;52.008;4.576;2023-07-02T07:31:47;18.30;;;5.57;;
35120;SDS011;21297;52.008;4.576;2023-07-02T07:34:32;18.10;;;5.60;;
35120;SDS011;21297;52.008;4.576;2023-07-02T07:37:24;17.23;;;4.72;;
35120;SDS011;21297;52.008;4.576;2023-07-02T07:40:11;21.67;;;5.85;;
35120;SDS011;21297;52.008;4.576;2023-07-02T07:42:57;20.38;;;5.78;;
35120;SDS011;21297;52.008;4.576;2023-07-02T07:45:43;17.00;;;5.38;;
35120;SDS011;21297;52.008;4.576;2023-07-02T07:48:29;17.83;;;5.55;;
35120;SDS011;21297;52.008;4.576;2023-07-02T07:51:14;15.70;;;5.18;;
35120;SDS011;21297;52.008;4.576;2023-07-02T07:54:00;24.02;;;5.90;;
35120;SDS011;21297;52.008;4.576;2023-07-02T07:56:51;19.38;;;5.90;;
35120;SDS011;21297;52.008;4.576;2023-07-02T07:59:39;15.50;;;5.05;;
35120;SDS011;21297;52.008;4.576;2023-07-02T08:02:25;17.70;;;5.43;;
35120;SDS011;21297;52.008;4.576;2023-07-02T08:05:14;19.02;;;5.25;;
35120;SDS011;21297;52.008;4.576;2023-07-02T08:08:00;18.70;;;4.80;;
35120;SDS011;21297;52.008;4.576;2023-07-02T08:10:51;17.10;;;5.05;;
35120;SDS011;21297;52.008;4.576;2023-07-02T08:13:37;15.75;;;4.93;;
35120;SDS011;21297;52.008;4.576;2023-07-02T08:16:29;13.73;;;4.68;;
35120;SDS011;21297;52.008;4.576;2023-07-02T08:19:15;16.95;;;4.70;;
35120;SDS011;21297;52.008;4.576;2023-07-02T08:22:00;17.95;;;4.75;;
35120;SDS011;21297;52.008;4.576;2023-07-02T08:24:54;16.25;;;4.68;;
35120;SDS011;21297;52.008;4.576;2023-07-02T08:27:43;14.60;;;3.92;;
35120;SDS011;21297;52.008;4.576;2023-07-02T08:30:29;12.75;;;4.57;;
35120;SDS011;21297;52.008;4.576;2023-07-02T08:33:15;17.05;;;3.78;;
35120;SDS011;21297;52.008;4.576;2023-07-02T08:36:01;15.55;;;4.00;;
35120;SDS011;21297;52.008;4.576;2023-07-02T08:38:46;16.08;;;4.55;;
35120;SDS011;21297;52.008;4.576;2023-07-02T08:41:41;17.13;;;5.25;;
35120;SDS011;21297;52.008;4.576;2023-07-02T08:44:31;20.45;;;5.45;;
35120;SDS011;21297;52.008;4.576;2023-07-02T08:47:17;12.75;;;3.92;;
35120;SDS011;21297;52.008;4.576;2023-07-02T08:50:05;18.65;;;5.22;;
35120;SDS011;21297;52.008;4.576;2023-07-02T08:52:52;18.42;;;5.78;;
35120;SDS011;21297;52.008;4.576;2023-07-02T08:55:39;14.88;;;5.28;;
35120;SDS011;21297;52.008;4.576;2023-07-02T08:58:25;20.40;;;5.75;;
35120;SDS011;21297;52.008;4.576;2023-07-02T09:01:12;14.20;;;5.05;;
35120;SDS011;21297;52.008;4.576;2023-07-02T09:03:58;17.77;;;5.50;;
35120;SDS011;21297;52.008;4.576;2023-07-02T09:06:47;17.40;;;4.13;;
35120;SDS011;21297;52.008;4.576;2023-07-02T09:09:47;16.20;;;4.68;;
35120;SDS011;21297;52.008;4.576;2023-07-02T09:12:34;10.73;;;3.83;;
35120;SDS011;21297;52.008;4.576;2023-07-02T09:15:20;13.43;;;3.88;;
35120;SDS011;21297;52.008;4.576;2023-07-02T09:18:22;15.38;;;3.78;;
35120;SDS011;21297;52.008;4.576;2023-07-02T09:21:11;16.67;;;3.40;;
35120;SDS011;21297;52.008;4.576;2023-07-02T09:23:57;13.52;;;3.60;;
35120;SDS011;21297;52.008;4.576;2023-07-02T09:26:52;17.13;;;4.15;;
35120;SDS011;21297;52.008;4.576;2023-07-02T09:29:50;11.63;;;3.20;;
35120;SDS011;21297;52.008;4.576;2023-07-02T09:32:40;9.02;;;2.70;;
35120;SDS011;21297;52.008;4.576;2023-07-02T09:35:31;10.38;;;3.00;;
35120;SDS011;21297;52.008;4.576;2023-07-02T09:38:24;13.05;;;3.40;;
35120;SDS011;21297;52.008;4.576;2023-07-02T09:41:12;15.40;;;4.10;;
35120;SDS011;21297;52.008;4.576;2023-07-02T09:43:57;16.83;;;4.03;;
35120;SDS011;21297;52.008;4.576;2023-07-02T09:46:49;9.52;;;3.67;;
35120;SDS011;21297;52.008;4.576;2023-07-02T09:52:35;17.27;;;4.32;;
35120;SDS011;21297;52.008;4.576;2023-07-02T09:55:23;14.40;;;4.00;;
35120;SDS011;21297;52.008;4.576;2023-07-02T09:58:09;12.15;;;3.85;;
35120;SDS011;21297;52.008;4.576;2023-07-02T10:00:58;14.88;;;3.90;;
35120;SDS011;21297;52.008;4.576;2023-07-02T10:03:44;12.52;;;4.05;;
35120;SDS011;21297;52.008;4.576;2023-07-02T10:06:30;16.00;;;4.22;;
35120;SDS011;21297;52.008;4.576;2023-07-02T10:09:16;12.85;;;3.67;;
35120;SDS011;21297;52.008;4.576;2023-07-02T10:15:23;11.93;;;4.22;;
35120;SDS011;21297;52.008;4.576;2023-07-02T10:18:10;11.55;;;3.40;;
35120;SDS011;21297;52.008;4.576;2023-07-02T10:20:56;25.65;;;4.35;;
35120;SDS011;21297;52.008;4.576;2023-07-02T10:23:41;11.23;;;3.95;;
35120;SDS011;21297;52.008;4.576;2023-07-02T10:26:27;12.82;;;3.65;;
35120;SDS011;21297;52.008;4.576;2023-07-02T10:29:18;11.35;;;3.65;;
35120;SDS011;21297;52.008;4.576;2023-07-02T10:32:04;14.75;;;3.78;;
35120;SDS011;21297;52.008;4.576;2023-07-02T10:34:50;15.02;;;4.05;;
35120;SDS011;21297;52.008;4.576;2023-07-02T10:37:36;12.80;;;4.35;;
35120;SDS011;21297;52.008;4.576;2023-07-02T10:40:24;15.25;;;4.30;;
35120;SDS011;21297;52.008;4.576;2023-07-02T10:43:11;17.00;;;4.03;;
35120;SDS011;21297;52.008;4.576;2023-07-02T10:45:57;14.60;;;3.97;;
35120;SDS011;21297;52.008;4.576;2023-07-02T10:51:41;14.93;;;3.85;;
35120;SDS011;21297;52.008;4.576;2023-07-02T10:54:38;14.43;;;3.88;;
35120;SDS011;21297;52.008;4.576;2023-07-02T10:57:26;11.65;;;4.32;;
35120;SDS011;21297;52.008;4.576;2023-07-02T11:00:12;11.27;;;3.80;;
35120;SDS011;21297;52.008;4.576;2023-07-02T11:02:58;11.15;;;3.72;;
35120;SDS011;21297;52.008;4.576;2023-07-02T11:05:45;10.80;;;4.07;;
35120;SDS011;21297;52.008;4.576;2023-07-02T11:08:35;18.10;;;5.25;;
35120;SDS011;21297;52.008;4.576;2023-07-02T11:11:24;9.88;;;3.92;;
35120;SDS011;21297;52.008;4.576;2023-07-02T11:14:10;18.40;;;5.07;;
35120;SDS011;21297;52.008;4.576;2023-07-02T11:16:56;16.83;;;4.57;;
35120;SDS011;21297;52.008;4.576;2023-07-02T11:19:49;15.63;;;4.80;;
35120;SDS011;21297;52.008;4.576;2023-07-02T11:22:36;13.70;;;4.25;;
35120;SDS011;21297;52.008;4.576;2023-07-02T11:25:23;12.63;;;4.05;;
35120;SDS011;21297;52.008;4.576;2023-07-02T11:28:09;17.88;;;5.40;;
35120;SDS011;21297;52.008;4.576;2023-07-02T11:30:54;16.58;;;4.80;;
35120;SDS011;21297;52.008;4.576;2023-07-02T11:33:41;10.70;;;4.53;;
35120;SDS011;21297;52.008;4.576;2023-07-02T11:36:26;12.38;;;4.50;;
35120;SDS011;21297;52.008;4.576;2023-07-02T11:39:12;12.35;;;4.72;;
35120;SDS011;21297;52.008;4.576;2023-07-02T11:42:00;13.88;;;4.60;;
35120;SDS011;21297;52.008;4.576;2023-07-02T11:44:46;12.65;;;4.15;;
35120;SDS011;21297;52.008;4.576;2023-07-02T11:47:32;13.95;;;4.55;;
35120;SDS011;21297;52.008;4.576;2023-07-02T11:50:21;13.18;;;5.00;;
35120;SDS011;21297;52.008;4.576;2023-07-02T11:53:06;14.00;;;5.03;;
35120;SDS011;21297;52.008;4.576;2023-07-02T11:55:52;16.45;;;5.07;;
35120;SDS011;21297;52.008;4.576;2023-07-02T11:58:38;11.80;;;4.75;;
35120;SDS011;21297;52.008;4.576;2023-07-02T12:01:24;14.13;;;4.90;;
35120;SDS011;21297;52.008;4.576;2023-07-02T12:04:10;18.30;;;5.50;;
35120;SDS011;21297;52.008;4.576;2023-07-02T12:06:57;16.73;;;5.20;;
35120;SDS011;21297;52.008;4.576;2023-07-02T12:09:43;13.35;;;4.70;;
35120;SDS011;21297;52.008;4.576;2023-07-02T12:12:28;14.32;;;5.45;;
35120;SDS011;21297;52.008;4.576;2023-07-02T12:15:14;19.30;;;5.05;;
35120;SDS011;21297;52.008;4.576;2023-07-02T12:18:00;13.35;;;4.95;;
35120;SDS011;21297;52.008;4.576;2023-07-02T12:20:53;13.98;;;4.78;;
35120;SDS011;21297;52.008;4.576;2023-07-02T12:23:38;15.02;;;4.90;;
35120;SDS011;21297;52.008;4.576;2023-07-02T12:26:24;14.23;;;5.15;;
35120;SDS011;21297;52.008;4.576;2023-07-02T12:29:10;14.52;;;4.90;;
35120;SDS011;21297;52.008;4.576;2023-07-02T12:31:55;11.52;;;4.30;;
35120;SDS011;21297;52.008;4.576;2023-07-02T12:34:41;13.30;;;5.15;;
35120;SDS011;21297;52.008;4.576;2023-07-02T12:37:31;13.00;;;5.10;;
35120;SDS011;21297;52.008;4.576;2023-07-02T12:40:18;13.65;;;4.80;;
35120;SDS011;21297;52.008;4.576;2023-07-02T12:43:04;15.50;;;4.38;;
35120;SDS011;21297;52.008;4.576;2023-07-02T12:45:51;13.07;;;4.85;;
35120;SDS011;21297;52.008;4.576;2023-07-02T12:51:26;13.57;;;4.80;;
35120;SDS011;21297;52.008;4.576;2023-07-02T12:54:11;15.65;;;4.82;;
35120;SDS011;21297;52.008;4.576;2023-07-02T12:57:00;14.45;;;5.20;;
35120;SDS011;21297;52.008;4.576;2023-07-02T12:59:54;17.40;;;5.65;;
35120;SDS011;21297;52.008;4.576;2023-07-02T13:02:47;17.65;;;5.75;;
35120;SDS011;21297;52.008;4.576;2023-07-02T13:05:36;13.70;;;5.13;;
35120;SDS011;21297;52.008;4.576;2023-07-02T13:08:29;13.95;;;4.97;;
35120;SDS011;21297;52.008;4.576;2023-07-02T13:11:14;13.15;;;4.80;;
35120;SDS011;21297;52.008;4.576;2023-07-02T13:14:02;15.48;;;5.40;;
35120;SDS011;21297;52.008;4.576;2023-07-02T13:16:49;15.23;;;5.75;;
35120;SDS011;21297;52.008;4.576;2023-07-02T13:19:39;17.30;;;5.20;;
35120;SDS011;21297;52.008;4.576;2023-07-02T13:22:31;12.13;;;4.90;;
35120;SDS011;21297;52.008;4.576;2023-07-02T13:25:25;17.23;;;5.45;;
35120;SDS011;21297;52.008;4.576;2023-07-02T13:28:13;15.02;;;5.18;;
35120;SDS011;21297;52.008;4.576;2023-07-02T13:31:00;14.50;;;4.82;;
35120;SDS011;21297;52.008;4.576;2023-07-02T13:33:46;12.68;;;5.63;;
35120;SDS011;21297;52.008;4.576;2023-07-02T13:36:32;13.55;;;4.55;;
35120;SDS011;21297;52.008;4.576;2023-07-02T13:39:19;9.52;;;4.40;;
35120;SDS011;21297;52.008;4.576;2023-07-02T13:42:05;14.43;;;5.03;;
35120;SDS011;21297;52.008;4.576;2023-07-02T13:44:54;14.60;;;5.10;;
35120;SDS011;21297;52.008;4.576;2023-07-02T13:47:43;15.18;;;4.97;;
35120;SDS011;21297;52.008;4.576;2023-07-02T13:50:33;17.15;;;4.40;;
35120;SDS011;21297;52.008;4.576;2023-07-02T13:53:23;15.77;;;5.05;;
35120;SDS011;21297;52.008;4.576;2023-07-02T13:56:10;26.70;;;4.97;;
35120;SDS011;21297;52.008;4.576;2023-07-02T13:59:00;10.23;;;4.20;;
35120;SDS011;21297;52.008;4.576;2023-07-02T14:01:49;13.50;;;3.95;;
35120;SDS011;21297;52.008;4.576;2023-07-02T14:04:38;15.00;;;3.85;;
35120;SDS011;21297;52.008;4.576;2023-07-02T14:07:24;17.65;;;4.50;;
35120;SDS011;21297;52.008;4.576;2023-07-02T14:10:13;10.60;;;4.10;;
35120;SDS011;21297;52.008;4.576;2023-07-02T14:13:00;10.98;;;4.45;;
35120;SDS011;21297;52.008;4.576;2023-07-02T14:15:49;12.68;;;4.25;;
35120;SDS011;21297;52.008;4.576;2023-07-02T14:18:38;12.43;;;3.80;;
35120;SDS011;21297;52.008;4.576;2023-07-02T14:21:25;13.30;;;3.95;;
35120;SDS011;21297;52.008;4.576;2023-07-02T14:24:11;12.63;;;4.28;;
35120;SDS011;21297;52.008;4.576;2023-07-02T14:26:59;16.95;;;4.18;;
35120;SDS011;21297;52.008;4.576;2023-07-02T14:29:45;15.48;;;4.65;;
35120;SDS011;21297;52.008;4.576;2023-07-02T14:32:34;12.10;;;4.63;;
35120;SDS011;21297;52.008;4.576;2023-07-02T14:35:27;11.48;;;3.90;;
35120;SDS011;21297;52.008;4.576;2023-07-02T14:38:16;15.50;;;4.78;;
35120;SDS011;21297;52.008;4.576;2023-07-02T14:41:02;10.10;;;4.35;;
35120;SDS011;21297;52.008;4.576;2023-07-02T14:43:48;13.02;;;4.45;;
35120;SDS011;21297;52.008;4.576;2023-07-02T14:46:34;11.45;;;4.15;;
35120;SDS011;21297;52.008;4.576;2023-07-02T14:49:20;13.27;;;4.38;;
35120;SDS011;21297;52.008;4.576;2023-07-02T14:52:08;14.15;;;4.63;;
35120;SDS011;21297;52.008;4.576;2023-07-02T14:54:58;13.13;;;4.68;;
35120;SDS011;21297;52.008;4.576;2023-07-02T14:58:02;12.73;;;4.88;;
35120;SDS011;21297;52.008;4.576;2023-07-02T15:00:52;15.57;;;4.78;;
35120;SDS011;21297;52.008;4.576;2023-07-02T15:03:40;11.63;;;4.38;;
35120;SDS011;21297;52.008;4.576;2023-07-02T15:06:29;15.82;;;4.82;;
35120;SDS011;21297;52.008;4.576;2023-07-02T15:09:16;15.52;;;4.70;;
35120;SDS011;21297;52.008;4.576;2023-07-02T15:12:06;15.52;;;4.82;;
35120;SDS011;21297;52.008;4.576;2023-07-02T15:14:52;17.80;;;4.90;;
35120;SDS011;21297;52.008;4.576;2023-07-02T15:17:41;13.07;;;5.03;;
35120;SDS011;21297;52.008;4.576;2023-07-02T15:20:27;14.90;;;4.82;;
35120;SDS011;21297;52.008;4.576;2023-07-02T15:23:12;18.00;;;5.25;;
35120;SDS011;21297;52.008;4.576;2023-07-02T15:26:02;13.02;;;4.75;;
35120;SDS011;21297;52.008;4.576;2023-07-02T15:28:49;15.23;;;4.85;;
35120;SDS011;21297;52.008;4.576;2023-07-02T15:31:34;17.33;;;4.88;;
35120;SDS011;21297;52.008;4.576;2023-07-02T15:34:22;20.35;;;5.65;;
35120;SDS011;21297;52.008;4.576;2023-07-02T15:37:11;15.98;;;5.68;;
35120;SDS011;21297;52.008;4.576;2023-07-02T15:39:59;15.07;;;5.30;;
35120;SDS011;21297;52.008;4.576;2023-07-02T15:42:45;15.02;;;5.72;;
35120;SDS011;21297;52.008;4.576;2023-07-02T15:45:31;13.30;;;5.88;;
35120;SDS011;21297;52.008;4.576;2023-07-02T15:48:17;14.90;;;5.55;;
35120;SDS011;21297;52.008;4.576;2023-07-02T15:51:03;15.68;;;5.70;;
35120;SDS011;21297;52.008;4.576;2023-07-02T15:53:51;15.15;;;5.78;;
35120;SDS011;21297;52.008;4.576;2023-07-02T15:56:38;16.23;;;5.85;;
35120;SDS011;21297;52.008;4.576;2023-07-02T15:59:24;20.20;;;5.65;;
35120;SDS011;21297;52.008;4.576;2023-07-02T16:02:10;20.08;;;6.43;;
35120;SDS011;21297;52.008;4.576;2023-07-02T16:04:57;15.60;;;5.60;;
35120;SDS011;21297;52.008;4.576;2023-07-02T16:07:44;13.82;;;5.28;;
35120;SDS011;21297;52.008;4.576;2023-07-02T16:10:34;14.85;;;5.13;;
35120;SDS011;21297;52.008;4.576;2023-07-02T16:13:28;14.30;;;5.40;;
35120;SDS011;21297;52.008;4.576;2023-07-02T16:16:14;15.27;;;5.70;;
35120;SDS011;21297;52.008;4.576;2023-07-02T16:19:00;17.55;;;6.10;;
35120;SDS011;21297;52.008;4.576;2023-07-02T16:21:46;14.27;;;5.35;;
35120;SDS011;21297;52.008;4.576;2023-07-02T16:24:34;20.25;;;5.78;;
35120;SDS011;21297;52.008;4.576;2023-07-02T16:27:20;21.17;;;6.72;;
35120;SDS011;21297;52.008;4.576;2023-07-02T16:30:06;16.40;;;5.65;;
35120;SDS011;21297;52.008;4.576;2023-07-02T16:32:52;17.50;;;5.95;;
35120;SDS011;21297;52.008;4.576;2023-07-02T16:35:38;19.63;;;5.82;;
35120;SDS011;21297;52.008;4.576;2023-07-02T16:38:24;17.80;;;5.80;;
35120;SDS011;21297;52.008;4.576;2023-07-02T16:41:10;21.67;;;6.18;;
35120;SDS011;21297;52.008;4.576;2023-07-02T16:43:57;19.40;;;5.75;;
35120;SDS011;21297;52.008;4.576;2023-07-02T16:46:49;15.68;;;6.00;;
35120;SDS011;21297;52.008;4.576;2023-07-02T16:49:37;20.52;;;5.85;;
35120;SDS011;21297;52.008;4.576;2023-07-02T16:52:23;21.73;;;5.82;;